sensor_id;sensor_type;location;lat;lon;timestamp;temperature;humidity
23703;DHT22;12030;50.376;8.762;2023-02-18T00:02:06;11.70;99.90
23703;DHT22;12030;50.376;8.762;2023-02-18T00:04:32;11.70;99.90
23703;DHT22;12030;50.376;8.762;2023-02-18T00:06:58;11.70;99.90
23703;DHT22;12030;50.376;8.762;2023-02-18T00:09:23;11.70;99.90
23703;DHT22;12030;50.376;8.762;2023-02-18T00:11:49;11.70;99.90
23703;DHT22;12030;50.376;8.762;2023-02-18T00:14:15;11.70;99.90
23703;DHT22;12030;50.376;8.762;2023-02-18T00:16:42;11.60;99.90
23703;DHT22;12030;50.376;8.762;2023-02-18T00:19:12;11.60;99.90
23703;DHT22;12030;50.376;8.762;2023-02-18T00:21:38;11.60;99.90
23703;DHT22;12030;50.376;8.762;2023-02-18T00:24:05;11.60;99.90
23703;DHT22;12030;50.376;8.762;2023-02-18T00:26:31;11.50;99.90
23703;DHT22;12030;50.376;8.762;2023-02-18T00:28:57;11.50;99.90
23703;DHT22;12030;50.376;8.762;2023-02-18T00:31:27;11.50;99.90
23703;DHT22;12030;50.376;8.762;2023-02-18T00:33:53;11.40;99.90
23703;DHT22;12030;50.376;8.762;2023-02-18T00:36:21;11.40;99.90
23703;DHT22;12030;50.376;8.762;2023-02-18T00:38:48;11.40;99.90
23703;DHT22;12030;50.376;8.762;2023-02-18T00:41:15;11.40;99.90
23703;DHT22;12030;50.376;8.762;2023-02-18T00:43:41;11.40;99.90
23703;DHT22;12030;50.376;8.762;2023-02-18T00:46:06;11.30;99.90
23703;DHT22;12030;50.376;8.762;2023-02-18T00:48:33;11.40;99.90
23703;DHT22;12030;50.376;8.762;2023-02-18T00:50:59;11.40;99.90
23703;DHT22;12030;50.376;8.762;2023-02-18T00:53:25;11.40;99.90
23703;DHT22;12030;50.376;8.762;2023-02-18T00:55:51;11.40;99.90
23703;DHT22;12030;50.376;8.762;2023-02-18T00:58:17;11.40;99.90
23703;DHT22;12030;50.376;8.762;2023-02-18T01:00:42;11.50;99.90
23703;DHT22;12030;50.376;8.762;2023-02-18T01:03:08;11.50;99.90
23703;DHT22;12030;50.376;8.762;2023-02-18T01:05:34;11.40;99.90
23703;DHT22;12030;50.376;8.762;2023-02-18T01:08:00;11.40;99.90
23703;DHT22;12030;50.376;8.762;2023-02-18T01:10:26;11.40;99.90
23703;DHT22;12030;50.376;8.762;2023-02-18T01:12:52;11.50;99.90
23703;DHT22;12030;50.376;8.762;2023-02-18T01:15:18;11.50;99.90
23703;DHT22;12030;50.376;8.762;2023-02-18T01:17:44;11.40;99.90
23703;DHT22;12030;50.376;8.762;2023-02-18T01:20:11;11.40;99.90
23703;DHT22;12030;50.376;8.762;2023-02-18T01:22:37;11.40;99.90
23703;DHT22;12030;50.376;8.762;2023-02-18T01:25:04;11.40;99.90
23703;DHT22;12030;50.376;8.762;2023-02-18T01:27:29;11.50;99.90
23703;DHT22;12030;50.376;8.762;2023-02-18T01:29:55;11.50;99.90
23703;DHT22;12030;50.376;8.762;2023-02-18T01:32:20;11.40;99.90
23703;DHT22;12030;50.376;8.762;2023-02-18T01:34:46;11.40;99.90
23703;DHT22;12030;50.376;8.762;2023-02-18T01:37:12;11.40;99.90
23703;DHT22;12030;50.376;8.762;2023-02-18T01:39:38;11.40;99.90
23703;DHT22;12030;50.376;8.762;2023-02-18T01:42:04;11.40;99.90
23703;DHT22;12030;50.376;8.762;2023-02-18T01:44:33;11.40;99.90
23703;DHT22;12030;50.376;8.762;2023-02-18T01:46:58;11.40;99.90
23703;DHT22;12030;50.376;8.762;2023-02-18T01:49:27;11.40;99.90
23703;DHT22;12030;50.376;8.762;2023-02-18T01:52:22;11.40;99.90
23703;DHT22;12030;50.376;8.762;2023-02-18T01:54:53;11.40;99.90
23703;DHT22;12030;50.376;8.762;2023-02-18T01:57:23;11.40;99.90
23703;DHT22;12030;50.376;8.762;2023-02-18T02:00:04;11.40;99.90
23703;DHT22;12030;50.376;8.762;2023-02-18T02:02:31;11.40;99.90
23703;DHT22;12030;50.376;8.762;2023-02-18T02:04:59;11.40;99.90
23703;DHT22;12030;50.376;8.762;2023-02-18T02:07:26;11.40;99.90
23703;DHT22;12030;50.376;8.762;2023-02-18T02:09:53;11.50;99.90
23703;DHT22;12030;50.376;8.762;2023-02-18T02:13:00;11.50;99.90
23703;DHT22;12030;50.376;8.762;2023-02-18T02:15:40;11.50;99.90
23703;DHT22;12030;50.376;8.762;2023-02-18T02:21:10;11.40;99.90
23703;DHT22;12030;50.376;8.762;2023-02-18T02:29:26;11.40;99.90
23703;DHT22;12030;50.376;8.762;2023-02-18T02:32:28;11.40;99.90
23703;DHT22;12030;50.376;8.762;2023-02-18T02:45:52;11.40;99.90
23703;DHT22;12030;50.376;8.762;2023-02-18T02:48:32;11.40;99.90
23703;DHT22;12030;50.376;8.762;2023-02-18T02:51:14;11.40;99.90
23703;DHT22;12030;50.376;8.762;2023-02-18T02:53:43;11.30;99.90
23703;DHT22;12030;50.376;8.762;2023-02-18T02:56:19;11.40;99.90
23703;DHT22;12030;50.376;8.762;2023-02-18T02:59:02;11.40;99.90
23703;DHT22;12030;50.376;8.762;2023-02-18T03:04:38;11.40;99.90
23703;DHT22;12030;50.376;8.762;2023-02-18T03:13:02;11.40;99.90
23703;DHT22;12030;50.376;8.762;2023-02-18T03:15:38;11.40;99.90
23703;DHT22;12030;50.376;8.762;2023-02-18T03:18:22;11.30;99.90
23703;DHT22;12030;50.376;8.762;2023-02-18T03:20:54;11.20;99.90
23703;DHT22;12030;50.376;8.762;2023-02-18T03:23:26;11.20;99.90
23703;DHT22;12030;50.376;8.762;2023-02-18T03:25:52;11.20;99.90
23703;DHT22;12030;50.376;8.762;2023-02-18T03:28:20;11.10;99.90
23703;DHT22;12030;50.376;8.762;2023-02-18T03:30:50;11.10;99.90
23703;DHT22;12030;50.376;8.762;2023-02-18T03:33:21;11.10;99.90
23703;DHT22;12030;50.376;8.762;2023-02-18T03:35:50;11.10;99.90
23703;DHT22;12030;50.376;8.762;2023-02-18T03:38:39;11.10;99.90
23703;DHT22;12030;50.376;8.762;2023-02-18T03:41:08;11.10;99.90
23703;DHT22;12030;50.376;8.762;2023-02-18T03:43:34;11.10;99.90
23703;DHT22;12030;50.376;8.762;2023-02-18T03:46:00;11.10;99.90
23703;DHT22;12030;50.376;8.762;2023-02-18T03:48:25;11.10;99.90
23703;DHT22;12030;50.376;8.762;2023-02-18T03:50:51;11.20;99.90
23703;DHT22;12030;50.376;8.762;2023-02-18T03:53:16;11.10;99.90
23703;DHT22;12030;50.376;8.762;2023-02-18T03:55:42;11.20;99.90
23703;DHT22;12030;50.376;8.762;2023-02-18T03:58:08;11.20;99.90
23703;DHT22;12030;50.376;8.762;2023-02-18T04:00:33;11.20;99.90
23703;DHT22;12030;50.376;8.762;2023-02-18T04:02:59;11.30;99.90
23703;DHT22;12030;50.376;8.762;2023-02-18T04:05:24;11.30;99.90
23703;DHT22;12030;50.376;8.762;2023-02-18T04:07:50;11.40;99.90
23703;DHT22;12030;50.376;8.762;2023-02-18T04:10:15;11.40;99.90
23703;DHT22;12030;50.376;8.762;2023-02-18T04:12:41;11.50;99.90
23703;DHT22;12030;50.376;8.762;2023-02-18T04:15:07;11.40;99.90
23703;DHT22;12030;50.376;8.762;2023-02-18T04:17:33;11.40;99.90
23703;DHT22;12030;50.376;8.762;2023-02-18T04:19:59;11.40;99.90
23703;DHT22;12030;50.376;8.762;2023-02-18T04:22:24;11.40;99.90
23703;DHT22;12030;50.376;8.762;2023-02-18T04:24:50;11.50;99.90
23703;DHT22;12030;50.376;8.762;2023-02-18T04:27:15;11.40;99.90
23703;DHT22;12030;50.376;8.762;2023-02-18T04:29:41;11.50;99.90
23703;DHT22;12030;50.376;8.762;2023-02-18T04:32:07;11.50;99.90
23703;DHT22;12030;50.376;8.762;2023-02-18T04:34:32;11.50;99.90
23703;DHT22;12030;50.376;8.762;2023-02-18T04:36:58;11.40;99.90
23703;DHT22;12030;50.376;8.762;2023-02-18T04:39:23;11.40;99.90
23703;DHT22;12030;50.376;8.762;2023-02-18T04:41:49;11.40;99.90
23703;DHT22;12030;50.376;8.762;2023-02-18T04:44:14;11.40;99.90
23703;DHT22;12030;50.376;8.762;2023-02-18T04:46:40;11.40;99.90
23703;DHT22;12030;50.376;8.762;2023-02-18T04:49:05;11.40;99.90
23703;DHT22;12030;50.376;8.762;2023-02-18T04:51:31;11.40;99.90
23703;DHT22;12030;50.376;8.762;2023-02-18T04:53:57;11.40;99.90
23703;DHT22;12030;50.376;8.762;2023-02-18T04:56:22;11.30;99.90
23703;DHT22;12030;50.376;8.762;2023-02-18T04:58:48;11.30;99.90
23703;DHT22;12030;50.376;8.762;2023-02-18T05:01:13;11.20;99.90
23703;DHT22;12030;50.376;8.762;2023-02-18T05:03:39;11.20;99.90
23703;DHT22;12030;50.376;8.762;2023-02-18T05:06:04;11.10;99.90
23703;DHT22;12030;50.376;8.762;2023-02-18T05:08:30;11.10;99.90
23703;DHT22;12030;50.376;8.762;2023-02-18T05:10:56;11.00;99.90
23703;DHT22;12030;50.376;8.762;2023-02-18T05:13:21;11.00;99.90
23703;DHT22;12030;50.376;8.762;2023-02-18T05:15:47;10.90;99.90
23703;DHT22;12030;50.376;8.762;2023-02-18T05:18:13;10.90;99.90
23703;DHT22;12030;50.376;8.762;2023-02-18T05:20:38;10.90;99.90
23703;DHT22;12030;50.376;8.762;2023-02-18T05:23:04;10.80;99.90
23703;DHT22;12030;50.376;8.762;2023-02-18T05:25:30;10.80;99.90
23703;DHT22;12030;50.376;8.762;2023-02-18T05:27:55;10.80;99.90
23703;DHT22;12030;50.376;8.762;2023-02-18T05:30:21;10.70;99.90
23703;DHT22;12030;50.376;8.762;2023-02-18T05:32:46;10.80;99.90
23703;DHT22;12030;50.376;8.762;2023-02-18T05:35:12;10.70;99.90
23703;DHT22;12030;50.376;8.762;2023-02-18T05:37:38;10.70;99.90
23703;DHT22;12030;50.376;8.762;2023-02-18T05:40:04;10.70;99.90
23703;DHT22;12030;50.376;8.762;2023-02-18T05:42:30;10.70;99.90
23703;DHT22;12030;50.376;8.762;2023-02-18T05:44:57;10.70;99.90
23703;DHT22;12030;50.376;8.762;2023-02-18T05:47:23;10.70;99.90
23703;DHT22;12030;50.376;8.762;2023-02-18T05:49:48;10.70;99.90
23703;DHT22;12030;50.376;8.762;2023-02-18T05:52:15;10.70;99.90
23703;DHT22;12030;50.376;8.762;2023-02-18T05:54:41;10.70;99.90
23703;DHT22;12030;50.376;8.762;2023-02-18T05:57:07;10.70;99.90
23703;DHT22;12030;50.376;8.762;2023-02-18T05:59:33;10.70;99.90
23703;DHT22;12030;50.376;8.762;2023-02-18T06:01:58;10.60;99.90
23703;DHT22;12030;50.376;8.762;2023-02-18T06:04:25;10.60;99.90
23703;DHT22;12030;50.376;8.762;2023-02-18T06:06:50;10.60;99.90
23703;DHT22;12030;50.376;8.762;2023-02-18T06:09:16;10.60;99.90
23703;DHT22;12030;50.376;8.762;2023-02-18T06:11:42;10.60;99.90
23703;DHT22;12030;50.376;8.762;2023-02-18T06:14:08;10.60;99.90
23703;DHT22;12030;50.376;8.762;2023-02-18T06:16:33;10.60;99.90
23703;DHT22;12030;50.376;8.762;2023-02-18T06:18:59;10.60;99.90
23703;DHT22;12030;50.376;8.762;2023-02-18T06:21:25;10.60;99.90
23703;DHT22;12030;50.376;8.762;2023-02-18T06:23:50;10.50;99.90
23703;DHT22;12030;50.376;8.762;2023-02-18T06:26:16;10.60;99.90
23703;DHT22;12030;50.376;8.762;2023-02-18T06:28:41;10.70;99.90
23703;DHT22;12030;50.376;8.762;2023-02-18T06:31:07;10.70;99.90
23703;DHT22;12030;50.376;8.762;2023-02-18T06:33:32;10.70;99.90
23703;DHT22;12030;50.376;8.762;2023-02-18T06:36:01;10.70;99.90
23703;DHT22;12030;50.376;8.762;2023-02-18T06:38:27;10.70;99.90
23703;DHT22;12030;50.376;8.762;2023-02-18T06:40:53;10.70;99.90
23703;DHT22;12030;50.376;8.762;2023-02-18T06:43:19;10.70;99.90
23703;DHT22;12030;50.376;8.762;2023-02-18T06:45:45;10.70;99.90
23703;DHT22;12030;50.376;8.762;2023-02-18T06:48:11;10.70;99.90
23703;DHT22;12030;50.376;8.762;2023-02-18T06:50:37;10.80;99.90
23703;DHT22;12030;50.376;8.762;2023-02-18T06:53:02;10.80;99.90
23703;DHT22;12030;50.376;8.762;2023-02-18T06:55:28;10.80;99.90
23703;DHT22;12030;50.376;8.762;2023-02-18T06:57:53;10.80;99.90
23703;DHT22;12030;50.376;8.762;2023-02-18T07:00:19;10.80;99.90
23703;DHT22;12030;50.376;8.762;2023-02-18T07:02:45;10.80;99.90
23703;DHT22;12030;50.376;8.762;2023-02-18T07:05:10;10.80;99.90
23703;DHT22;12030;50.376;8.762;2023-02-18T07:07:36;10.80;99.90
23703;DHT22;12030;50.376;8.762;2023-02-18T07:10:02;10.80;99.90
23703;DHT22;12030;50.376;8.762;2023-02-18T07:12:27;10.80;99.90
23703;DHT22;12030;50.376;8.762;2023-02-18T07:14:53;10.80;99.90
23703;DHT22;12030;50.376;8.762;2023-02-18T07:17:18;10.80;99.90
23703;DHT22;12030;50.376;8.762;2023-02-18T07:19:44;10.80;99.90
23703;DHT22;12030;50.376;8.762;2023-02-18T07:22:10;10.80;99.90
23703;DHT22;12030;50.376;8.762;2023-02-18T07:24:35;10.80;99.90
23703;DHT22;12030;50.376;8.762;2023-02-18T07:27:01;10.90;99.90
23703;DHT22;12030;50.376;8.762;2023-02-18T07:29:26;10.80;99.90
23703;DHT22;12030;50.376;8.762;2023-02-18T07:31:52;10.80;99.90
23703;DHT22;12030;50.376;8.762;2023-02-18T07:34:18;10.90;99.90
23703;DHT22;12030;50.376;8.762;2023-02-18T07:36:44;10.90;99.90
23703;DHT22;12030;50.376;8.762;2023-02-18T07:39:10;10.90;99.90
23703;DHT22;12030;50.376;8.762;2023-02-18T07:41:35;10.80;99.90
23703;DHT22;12030;50.376;8.762;2023-02-18T07:44:01;10.90;99.90
23703;DHT22;12030;50.376;8.762;2023-02-18T07:46:26;10.80;99.90
23703;DHT22;12030;50.376;8.762;2023-02-18T07:48:52;10.90;99.90
23703;DHT22;12030;50.376;8.762;2023-02-18T07:51:17;10.80;99.90
23703;DHT22;12030;50.376;8.762;2023-02-18T07:53:43;10.90;99.90
23703;DHT22;12030;50.376;8.762;2023-02-18T07:56:08;10.90;99.90
23703;DHT22;12030;50.376;8.762;2023-02-18T07:58:36;10.90;99.90
23703;DHT22;12030;50.376;8.762;2023-02-18T08:01:07;10.90;99.90
23703;DHT22;12030;50.376;8.762;2023-02-18T08:03:33;10.90;99.90
23703;DHT22;12030;50.376;8.762;2023-02-18T08:06:00;10.90;99.90
23703;DHT22;12030;50.376;8.762;2023-02-18T08:08:27;10.90;99.90
23703;DHT22;12030;50.376;8.762;2023-02-18T08:10:55;10.90;99.90
23703;DHT22;12030;50.376;8.762;2023-02-18T08:13:21;10.90;99.90
23703;DHT22;12030;50.376;8.762;2023-02-18T08:15:46;10.90;99.90
23703;DHT22;12030;50.376;8.762;2023-02-18T08:18:17;10.90;99.90
23703;DHT22;12030;50.376;8.762;2023-02-18T08:20:44;10.90;99.90
23703;DHT22;12030;50.376;8.762;2023-02-18T08:23:11;10.90;99.90
23703;DHT22;12030;50.376;8.762;2023-02-18T08:25:37;10.90;99.90
23703;DHT22;12030;50.376;8.762;2023-02-18T08:28:02;10.90;99.90
23703;DHT22;12030;50.376;8.762;2023-02-18T08:30:28;10.90;99.90
23703;DHT22;12030;50.376;8.762;2023-02-18T08:32:53;10.90;99.90
23703;DHT22;12030;50.376;8.762;2023-02-18T08:35:19;10.90;99.90
23703;DHT22;12030;50.376;8.762;2023-02-18T08:37:45;10.90;99.90
23703;DHT22;12030;50.376;8.762;2023-02-18T08:40:11;11.00;99.90
23703;DHT22;12030;50.376;8.762;2023-02-18T08:42:36;11.00;99.90
23703;DHT22;12030;50.376;8.762;2023-02-18T08:45:03;11.00;99.90
23703;DHT22;12030;50.376;8.762;2023-02-18T08:47:28;11.00;99.90
23703;DHT22;12030;50.376;8.762;2023-02-18T08:49:54;11.00;99.90
23703;DHT22;12030;50.376;8.762;2023-02-18T08:52:20;11.00;99.90
23703;DHT22;12030;50.376;8.762;2023-02-18T08:54:46;11.00;99.90
23703;DHT22;12030;50.376;8.762;2023-02-18T08:57:11;11.00;99.90
23703;DHT22;12030;50.376;8.762;2023-02-18T08:59:37;11.00;99.90
23703;DHT22;12030;50.376;8.762;2023-02-18T09:02:03;11.00;99.90
23703;DHT22;12030;50.376;8.762;2023-02-18T09:04:29;11.00;99.90
23703;DHT22;12030;50.376;8.762;2023-02-18T09:06:54;11.00;99.90
23703;DHT22;12030;50.376;8.762;2023-02-18T09:09:20;11.00;99.90
23703;DHT22;12030;50.376;8.762;2023-02-18T09:11:46;11.00;99.90
23703;DHT22;12030;50.376;8.762;2023-02-18T09:14:11;11.10;99.90
23703;DHT22;12030;50.376;8.762;2023-02-18T09:16:38;11.10;99.90
23703;DHT22;12030;50.376;8.762;2023-02-18T09:19:04;11.10;99.90
23703;DHT22;12030;50.376;8.762;2023-02-18T09:21:30;11.20;99.90
23703;DHT22;12030;50.376;8.762;2023-02-18T09:23:56;11.20;99.90
23703;DHT22;12030;50.376;8.762;2023-02-18T09:26:22;11.30;99.90
23703;DHT22;12030;50.376;8.762;2023-02-18T09:28:49;11.20;99.90
23703;DHT22;12030;50.376;8.762;2023-02-18T09:31:18;11.30;99.90
23703;DHT22;12030;50.376;8.762;2023-02-18T09:33:46;11.30;99.90
23703;DHT22;12030;50.376;8.762;2023-02-18T09:36:13;11.30;99.90
23703;DHT22;12030;50.376;8.762;2023-02-18T09:38:39;11.30;99.90
23703;DHT22;12030;50.376;8.762;2023-02-18T09:43:54;11.30;99.90
23703;DHT22;12030;50.376;8.762;2023-02-18T09:46:29;11.30;99.90
23703;DHT22;12030;50.376;8.762;2023-02-18T09:48:55;11.40;99.90
23703;DHT22;12030;50.376;8.762;2023-02-18T09:51:21;11.20;99.90
23703;DHT22;12030;50.376;8.762;2023-02-18T09:53:47;11.20;99.90
23703;DHT22;12030;50.376;8.762;2023-02-18T09:56:17;11.30;99.90
23703;DHT22;12030;50.376;8.762;2023-02-18T09:58:46;11.20;99.90
23703;DHT22;12030;50.376;8.762;2023-02-18T10:01:34;11.20;99.90
23703;DHT22;12030;50.376;8.762;2023-02-18T10:04:18;11.20;99.90
23703;DHT22;12030;50.376;8.762;2023-02-18T10:06:46;11.20;99.90
23703;DHT22;12030;50.376;8.762;2023-02-18T10:09:20;11.30;99.90
23703;DHT22;12030;50.376;8.762;2023-02-18T10:11:54;11.20;99.90
23703;DHT22;12030;50.376;8.762;2023-02-18T10:14:20;11.30;99.90
23703;DHT22;12030;50.376;8.762;2023-02-18T10:16:48;11.30;99.90
23703;DHT22;12030;50.376;8.762;2023-02-18T10:19:28;11.30;99.90
23703;DHT22;12030;50.376;8.762;2023-02-18T10:21:55;11.30;99.90
23703;DHT22;12030;50.376;8.762;2023-02-18T10:24:30;11.30;99.90
23703;DHT22;12030;50.376;8.762;2023-02-18T10:26:57;11.30;99.90
23703;DHT22;12030;50.376;8.762;2023-02-18T10:29:23;11.30;99.90
23703;DHT22;12030;50.376;8.762;2023-02-18T10:32:06;11.30;99.90
23703;DHT22;12030;50.376;8.762;2023-02-18T10:37:27;11.40;99.90
23703;DHT22;12030;50.376;8.762;2023-02-18T10:40:11;11.40;99.90
23703;DHT22;12030;50.376;8.762;2023-02-18T10:49:00;11.40;99.90
23703;DHT22;12030;50.376;8.762;2023-02-18T10:51:30;11.50;99.90
23703;DHT22;12030;50.376;8.762;2023-02-18T10:53:56;11.50;99.90
23703;DHT22;12030;50.376;8.762;2023-02-18T10:59:33;11.60;99.90
23703;DHT22;12030;50.376;8.762;2023-02-18T11:02:03;11.60;99.90
23703;DHT22;12030;50.376;8.762;2023-02-18T11:04:41;11.60;99.90
23703;DHT22;12030;50.376;8.762;2023-02-18T11:07:20;11.70;99.90
23703;DHT22;12030;50.376;8.762;2023-02-18T11:09:52;11.70;99.90
23703;DHT22;12030;50.376;8.762;2023-02-18T11:12:26;11.70;99.90
23703;DHT22;12030;50.376;8.762;2023-02-18T11:15:07;11.80;99.90
23703;DHT22;12030;50.376;8.762;2023-02-18T11:17:46;11.70;99.90
23703;DHT22;12030;50.376;8.762;2023-02-18T11:23:15;11.70;99.90
23703;DHT22;12030;50.376;8.762;2023-02-18T11:26:01;11.70;99.90
23703;DHT22;12030;50.376;8.762;2023-02-18T11:28:39;11.60;99.90
23703;DHT22;12030;50.376;8.762;2023-02-18T11:31:07;11.60;99.90
23703;DHT22;12030;50.376;8.762;2023-02-18T11:33:43;11.60;99.90
23703;DHT22;12030;50.376;8.762;2023-02-18T11:36:16;11.50;99.90
23703;DHT22;12030;50.376;8.762;2023-02-18T11:38:52;11.40;99.90
23703;DHT22;12030;50.376;8.762;2023-02-18T11:41:39;11.30;99.90
23703;DHT22;12030;50.376;8.762;2023-02-18T11:44:17;11.30;99.90
23703;DHT22;12030;50.376;8.762;2023-02-18T11:46:59;11.40;99.90
23703;DHT22;12030;50.376;8.762;2023-02-18T11:49:26;11.30;99.90
23703;DHT22;12030;50.376;8.762;2023-02-18T11:51:52;11.30;99.90
23703;DHT22;12030;50.376;8.762;2023-02-18T11:54:26;11.40;99.90
23703;DHT22;12030;50.376;8.762;2023-02-18T11:57:13;11.40;99.90
23703;DHT22;12030;50.376;8.762;2023-02-18T11:59:40;11.40;99.90
23703;DHT22;12030;50.376;8.762;2023-02-18T12:07:24;11.60;99.90
23703;DHT22;12030;50.376;8.762;2023-02-18T12:09:56;11.60;99.90
23703;DHT22;12030;50.376;8.762;2023-02-18T12:12:34;11.60;99.90
23703;DHT22;12030;50.376;8.762;2023-02-18T12:15:02;11.70;99.90
23703;DHT22;12030;50.376;8.762;2023-02-18T12:17:48;11.70;99.90
23703;DHT22;12030;50.376;8.762;2023-02-18T12:23:39;11.70;99.90
23703;DHT22;12030;50.376;8.762;2023-02-18T12:32:00;11.80;99.90
23703;DHT22;12030;50.376;8.762;2023-02-18T12:34:46;11.90;99.90
23703;DHT22;12030;50.376;8.762;2023-02-18T12:37:39;11.90;99.90
23703;DHT22;12030;50.376;8.762;2023-02-18T12:45:44;11.80;99.90
23703;DHT22;12030;50.376;8.762;2023-02-18T12:48:30;11.80;99.90
23703;DHT22;12030;50.376;8.762;2023-02-18T12:51:33;11.80;99.90
23703;DHT22;12030;50.376;8.762;2023-02-18T12:54:11;11.80;99.90
23703;DHT22;12030;50.376;8.762;2023-02-18T12:57:01;11.80;99.90
23703;DHT22;12030;50.376;8.762;2023-02-18T13:05:42;11.90;99.90
23703;DHT22;12030;50.376;8.762;2023-02-18T13:08:17;11.90;99.90
23703;DHT22;12030;50.376;8.762;2023-02-18T13:13:20;11.80;99.90
23703;DHT22;12030;50.376;8.762;2023-02-18T13:16:14;11.80;99.90
23703;DHT22;12030;50.376;8.762;2023-02-18T13:18:44;11.80;99.90
23703;DHT22;12030;50.376;8.762;2023-02-18T13:21:13;11.80;99.90
23703;DHT22;12030;50.376;8.762;2023-02-18T13:26:16;11.80;99.90
23703;DHT22;12030;50.376;8.762;2023-02-18T13:28:48;11.80;99.90
23703;DHT22;12030;50.376;8.762;2023-02-18T13:31:43;11.80;99.90
23703;DHT22;12030;50.376;8.762;2023-02-18T13:34:42;11.70;99.90
23703;DHT22;12030;50.376;8.762;2023-02-18T13:39:56;11.70;99.90
23703;DHT22;12030;50.376;8.762;2023-02-18T13:42:32;11.70;99.90
23703;DHT22;12030;50.376;8.762;2023-02-18T13:47:41;11.70;99.90
23703;DHT22;12030;50.376;8.762;2023-02-18T13:50:39;11.70;99.90
23703;DHT22;12030;50.376;8.762;2023-02-18T13:55:39;11.60;99.90
23703;DHT22;12030;50.376;8.762;2023-02-18T13:58:14;11.60;99.90
23703;DHT22;12030;50.376;8.762;2023-02-18T14:00:47;11.60;99.90
23703;DHT22;12030;50.376;8.762;2023-02-18T14:03:33;11.60;99.90
23703;DHT22;12030;50.376;8.762;2023-02-18T14:06:01;11.60;99.90
23703;DHT22;12030;50.376;8.762;2023-02-18T14:13:48;11.70;99.90
23703;DHT22;12030;50.376;8.762;2023-02-18T14:16:14;11.80;99.90
23703;DHT22;12030;50.376;8.762;2023-02-18T14:28:48;11.90;99.90
23703;DHT22;12030;50.376;8.762;2023-02-18T14:39:11;12.00;99.90
23703;DHT22;12030;50.376;8.762;2023-02-18T14:42:02;11.90;99.90
23703;DHT22;12030;50.376;8.762;2023-02-18T14:47:41;12.00;99.90
23703;DHT22;12030;50.376;8.762;2023-02-18T14:50:14;12.00;99.90
23703;DHT22;12030;50.376;8.762;2023-02-18T14:52:52;12.00;99.90
23703;DHT22;12030;50.376;8.762;2023-02-18T14:55:31;12.00;99.90
23703;DHT22;12030;50.376;8.762;2023-02-18T14:58:07;12.00;99.90
23703;DHT22;12030;50.376;8.762;2023-02-18T15:00:42;12.00;99.90
23703;DHT22;12030;50.376;8.762;2023-02-18T15:03:13;12.00;99.90
23703;DHT22;12030;50.376;8.762;2023-02-18T15:05:39;11.90;99.90
23703;DHT22;12030;50.376;8.762;2023-02-18T15:08:09;11.90;99.90
23703;DHT22;12030;50.376;8.762;2023-02-18T15:10:45;11.90;99.90
23703;DHT22;12030;50.376;8.762;2023-02-18T15:13:30;11.90;99.90
23703;DHT22;12030;50.376;8.762;2023-02-18T15:16:00;11.90;99.90
23703;DHT22;12030;50.376;8.762;2023-02-18T15:18:35;11.90;99.90
23703;DHT22;12030;50.376;8.762;2023-02-18T15:21:03;11.70;99.90
23703;DHT22;12030;50.376;8.762;2023-02-18T15:23:30;11.80;99.90
23703;DHT22;12030;50.376;8.762;2023-02-18T15:25:57;11.80;99.90
23703;DHT22;12030;50.376;8.762;2023-02-18T15:28:30;11.80;99.90
23703;DHT22;12030;50.376;8.762;2023-02-18T15:30:58;11.80;99.90
23703;DHT22;12030;50.376;8.762;2023-02-18T15:33:24;11.80;99.90
23703;DHT22;12030;50.376;8.762;2023-02-18T15:35:50;11.80;99.90
23703;DHT22;12030;50.376;8.762;2023-02-18T15:38:18;11.70;99.90
23703;DHT22;12030;50.376;8.762;2023-02-18T15:40:46;11.70;99.90
23703;DHT22;12030;50.376;8.762;2023-02-18T15:43:17;11.70;99.90
23703;DHT22;12030;50.376;8.762;2023-02-18T15:45:45;11.60;99.90
23703;DHT22;12030;50.376;8.762;2023-02-18T15:50:55;11.60;99.90
23703;DHT22;12030;50.376;8.762;2023-02-18T15:53:21;11.60;99.90
23703;DHT22;12030;50.376;8.762;2023-02-18T15:55:49;11.60;99.90
23703;DHT22;12030;50.376;8.762;2023-02-18T16:00:55;11.50;99.90
23703;DHT22;12030;50.376;8.762;2023-02-18T16:03:23;11.50;99.90
23703;DHT22;12030;50.376;8.762;2023-02-18T16:05:50;11.50;99.90
23703;DHT22;12030;50.376;8.762;2023-02-18T16:08:26;11.50;99.90
23703;DHT22;12030;50.376;8.762;2023-02-18T16:10:59;11.50;99.90
23703;DHT22;12030;50.376;8.762;2023-02-18T16:13:25;11.50;99.90
23703;DHT22;12030;50.376;8.762;2023-02-18T16:15:51;11.50;99.90
23703;DHT22;12030;50.376;8.762;2023-02-18T16:18:35;11.50;99.90
23703;DHT22;12030;50.376;8.762;2023-02-18T16:23:52;11.50;99.90
23703;DHT22;12030;50.376;8.762;2023-02-18T16:28:53;11.40;99.90
23703;DHT22;12030;50.376;8.762;2023-02-18T16:31:19;11.40;99.90
23703;DHT22;12030;50.376;8.762;2023-02-18T16:33:48;11.40;99.90
23703;DHT22;12030;50.376;8.762;2023-02-18T16:36:15;11.40;99.90
23703;DHT22;12030;50.376;8.762;2023-02-18T16:38:43;11.40;99.90
23703;DHT22;12030;50.376;8.762;2023-02-18T16:41:11;11.40;99.90
23703;DHT22;12030;50.376;8.762;2023-02-18T16:43:37;11.40;99.90
23703;DHT22;12030;50.376;8.762;2023-02-18T16:46:16;11.40;99.90
23703;DHT22;12030;50.376;8.762;2023-02-18T16:48:44;11.40;99.90
23703;DHT22;12030;50.376;8.762;2023-02-18T16:51:23;11.30;99.90
23703;DHT22;12030;50.376;8.762;2023-02-18T16:53:50;11.30;99.90
23703;DHT22;12030;50.376;8.762;2023-02-18T16:56:19;11.40;99.90
23703;DHT22;12030;50.376;8.762;2023-02-18T16:58:45;11.30;99.90
23703;DHT22;12030;50.376;8.762;2023-02-18T17:03:55;11.40;99.90
23703;DHT22;12030;50.376;8.762;2023-02-18T17:06:21;11.30;99.90
23703;DHT22;12030;50.376;8.762;2023-02-18T17:08:47;11.30;99.90
23703;DHT22;12030;50.376;8.762;2023-02-18T17:11:22;11.30;99.90
23703;DHT22;12030;50.376;8.762;2023-02-18T17:13:50;11.30;99.90
23703;DHT22;12030;50.376;8.762;2023-02-18T17:16:17;11.30;99.90
23703;DHT22;12030;50.376;8.762;2023-02-18T17:18:43;11.30;99.90
23703;DHT22;12030;50.376;8.762;2023-02-18T17:21:12;11.20;99.90
23703;DHT22;12030;50.376;8.762;2023-02-18T17:23:38;11.20;99.90
23703;DHT22;12030;50.376;8.762;2023-02-18T17:26:07;11.20;99.90
23703;DHT22;12030;50.376;8.762;2023-02-18T17:28:34;11.20;99.90
23703;DHT22;12030;50.376;8.762;2023-02-18T17:30:59;11.20;99.90
23703;DHT22;12030;50.376;8.762;2023-02-18T17:33:25;11.20;99.90
23703;DHT22;12030;50.376;8.762;2023-02-18T17:35:51;11.10;99.90
23703;DHT22;12030;50.376;8.762;2023-02-18T17:38:18;11.10;99.90
23703;DHT22;12030;50.376;8.762;2023-02-18T17:40:44;11.00;99.90
23703;DHT22;12030;50.376;8.762;2023-02-18T17:43:12;11.00;99.90
23703;DHT22;12030;50.376;8.762;2023-02-18T17:45:47;11.00;99.90
23703;DHT22;12030;50.376;8.762;2023-02-18T17:48:13;11.00;99.90
23703;DHT22;12030;50.376;8.762;2023-02-18T17:50:39;11.00;99.90